Terminal Aerodrome Forecast
Issued by NWS

Home | Current Version | Previous Version | Text Only | Print | Product List | Glossary On
Versions: 1 2 3 4 5 6 7 8 9 10 11 12 13 14 15 16 17 18 19 20 21 22 23 24 25
000
FTUS45 KBYZ 041138
TAFLVM
TAF
KLVM 041138Z 0412/0512 32007KT P6SM SCT030 BKN040
     FM041800 07009KT P6SM SCT070 BKN100
     FM042200 09017G26KT P6SM VCTS BKN050CB OVC100
     FM050600 09014KT P6SM SCT030 OVC050=

USA.gov is the U.S. government's official web portal to all federal, state and local government web resources and services.